Time;durP1;ratioP1;P1;durP2;ratioP2;P2;SDS_P1;SDS_P2;PMS_P1;PMS_P2;Temp;Humidity;BMP_temperature;BMP_pressure;BME280_temperature;BME280_humidity;BME280_pressure;Samples;Min_cycle;Max_cycle;Signal;HPM_P1;HPM_P2
2022/05/18 00:00:11;;;;;;;11.45;5.47;;;;;;;20.09;73.39;101738.03;5014974;28;20404;-48
2022/05/18 00:02:39;;;;;;;10.65;5.85;;;;;;;20.10;73.15;101744.38;5033495;28;20048;-48
2022/05/18 00:05:08;;;;;;;11.90;5.75;;;;;;;20.07;73.05;101762.41;5016718;28;20037;-47
2022/05/18 00:07:36;;;;;;;10.32;5.15;;;;;;;20.07;72.98;101756.06;5034616;28;20128;-47
2022/05/18 00:10:04;;;;;;;10.95;5.28;;;;;;;20.07;72.93;101751.34;5026682;28;20056;-46
2022/05/18 00:12:32;;;;;;;11.02;4.97;;;;;;;20.09;72.91;101762.13;4998227;28;20453;-47
2022/05/18 00:14:59;;;;;;;11.73;5.50;;;;;;;20.10;72.64;101755.44;5030890;28;20037;-46
2022/05/18 00:17:27;;;;;;;10.10;4.85;;;;;;;20.09;72.24;101756.59;5024662;28;20041;-48
2022/05/18 00:19:55;;;;;;;11.20;5.22;;;;;;;20.07;72.48;101754.13;5030793;28;20057;-51
2022/05/18 00:22:22;;;;;;;11.43;6.07;;;;;;;20.01;72.41;101763.63;4997055;28;20053;-47
2022/05/18 00:24:50;;;;;;;11.02;5.63;;;;;;;19.95;72.68;101759.34;5016292;28;20057;-47
2022/05/18 00:27:18;;;;;;;14.63;6.00;;;;;;;19.90;73.06;101762.25;5014679;28;20053;-48
2022/05/18 00:29:45;;;;;;;10.13;5.40;;;;;;;19.86;73.13;101764.78;5022011;28;20105;-48
2022/05/18 00:32:13;;;;;;;10.65;5.50;;;;;;;19.83;73.01;101765.41;5033796;28;20049;-47
2022/05/18 00:34:41;;;;;;;11.38;5.15;;;;;;;19.77;73.35;101763.84;5031845;28;20041;-48
2022/05/18 00:37:09;;;;;;;11.35;5.60;;;;;;;19.71;73.83;101760.38;5014755;28;20129;-46
2022/05/18 00:39:36;;;;;;;12.38;6.07;;;;;;;19.68;73.75;101761.00;4998182;28;20037;-48
2022/05/18 00:42:04;;;;;;;11.93;5.10;;;;;;;19.62;74.06;101751.13;5014770;28;20038;-47
2022/05/18 00:44:32;;;;;;;11.27;5.22;;;;;;;19.58;74.25;101762.00;5014517;28;20132;-46
2022/05/18 00:46:59;;;;;;;12.98;5.75;;;;;;;19.54;74.33;101755.44;5034213;28;20037;-48
2022/05/18 00:49:52;;;;;;;12.45;5.75;;;;;;;19.57;74.25;101757.56;5018649;28;20539;-48
2022/05/18 00:52:23;;;;;;;11.57;5.30;;;;;;;19.61;73.86;101757.00;5014362;28;20055;-47
2022/05/18 00:54:52;;;;;;;13.15;5.63;;;;;;;19.55;73.95;101759.84;5021789;28;20476;-48
2022/05/18 00:57:32;;;;;;;11.55;5.50;;;;;;;19.50;74.30;101757.16;4996763;28;20069;-48
2022/05/18 01:00:04;;;;;;;11.88;5.40;;;;;;;19.47;74.36;101760.53;4999171;28;20053;-48
2022/05/18 01:02:37;;;;;;;14.65;5.53;;;;;;;19.45;74.51;101771.09;4997348;28;20065;-47
2022/05/18 01:05:30;;;;;;;12.05;5.40;;;;;;;19.43;74.46;101764.22;5021775;28;20132;-51
2022/05/18 01:08:37;;;;;;;8.55;4.85;;;;;;;19.38;74.56;101773.44;5012157;28;20438;-48
2022/05/18 01:11:25;;;;;;;10.93;5.60;;;;;;;19.31;74.78;101771.09;4996842;28;20045;-48
2022/05/18 01:14:17;;;;;;;10.32;5.18;;;;;;;19.29;75.01;101764.19;5001444;28;20080;-47
2022/05/18 01:16:46;;;;;;;12.23;5.50;;;;;;;19.27;74.92;101767.28;5032733;28;20051;-49
2022/05/18 01:19:39;;;;;;;9.80;5.22;;;;;;;19.23;75.27;101762.66;5031897;28;20055;-48
2022/05/18 01:22:44;;;;;;;11.68;5.30;;;;;;;19.19;75.39;101769.91;5033388;28;20052;-47
2022/05/18 01:25:39;;;;;;;10.45;5.75;;;;;;;19.18;75.10;101768.28;4986807;28;20056;-49
2022/05/18 01:28:07;;;;;;;10.55;5.47;;;;;;;19.16;75.61;101769.38;4970529;28;20138;-47
2022/05/18 01:30:38;;;;;;;10.82;5.70;;;;;;;19.15;75.48;101770.53;4997111;28;20045;-47
2022/05/18 01:33:07;;;;;;;9.48;5.28;;;;;;;19.14;75.42;101763.34;4996219;28;20054;-50
2022/05/18 01:35:41;;;;;;;10.77;5.82;;;;;;;19.13;75.46;101764.47;5002267;28;20046;-51
2022/05/18 01:38:12;;;;;;;13.35;6.15;;;;;;;19.09;75.55;101771.72;5013644;28;20060;-52
2022/05/18 01:40:53;;;;;;;9.98;5.22;;;;;;;19.05;75.90;101767.94;5015030;28;20038;-52
2022/05/18 01:43:29;;;;;;;9.77;5.38;;;;;;;19.03;75.89;101770.19;5012696;28;20041;-52
2022/05/18 01:45:59;;;;;;;10.48;5.43;;;;;;;19.00;76.06;101765.28;4996206;28;20045;-47
2022/05/18 01:48:31;;;;;;;12.93;5.78;;;;;;;18.98;76.07;101777.72;5012339;28;20054;-47
2022/05/18 01:51:00;;;;;;;9.88;5.50;;;;;;;18.94;76.21;101774.75;5005548;28;20044;-47
2022/05/18 01:53:28;;;;;;;10.52;5.10;;;;;;;18.89;76.37;101763.78;4997445;28;20037;-47
2022/05/18 01:55:57;;;;;;;11.63;5.60;;;;;;;18.87;76.71;101771.56;5015212;28;20052;-52
2022/05/18 01:58:24;;;;;;;13.27;5.78;;;;;;;18.84;76.72;101774.91;5033037;28;20141;-52
2022/05/18 02:00:53;;;;;;;13.35;5.72;;;;;;;18.84;76.85;101759.16;5030919;28;20045;-51
2022/05/18 02:03:22;;;;;;;10.77;5.82;;;;;;;18.82;76.70;101761.41;5015161;28;20057;-53
2022/05/18 02:05:51;;;;;;;10.52;5.45;;;;;;;18.80;76.98;101771.13;5013932;28;20045;-48
2022/05/18 02:08:19;;;;;;;10.30;5.55;;;;;;;18.79;76.90;101767.53;5015185;28;20044;-48
2022/05/18 02:10:47;;;;;;;14.32;5.47;;;;;;;18.77;77.11;101775.28;5013288;28;20476;-51
2022/05/18 02:13:15;;;;;;;16.35;5.57;;;;;;;18.76;77.16;101767.28;5027461;28;20038;-48
2022/05/18 02:15:43;;;;;;;13.15;5.75;;;;;;;18.76;77.24;101767.28;5004761;28;20041;-51
2022/05/18 02:18:10;;;;;;;11.63;5.40;;;;;;;18.80;76.87;101768.34;5014768;28;20520;-50
2022/05/18 02:20:39;;;;;;;12.68;5.72;;;;;;;18.80;76.84;101768.34;5031662;28;20041;-48
2022/05/18 02:23:08;;;;;;;13.02;6.00;;;;;;;18.81;76.71;101764.47;4985933;28;20056;-49
2022/05/18 02:25:37;;;;;;;12.55;5.85;;;;;;;18.81;76.81;101770.81;5032279;28;20136;-52
2022/05/18 02:28:05;;;;;;;10.20;5.60;;;;;;;18.78;76.88;101763.13;5030869;28;20500;-50
2022/05/18 02:30:33;;;;;;;13.77;5.85;;;;;;;18.77;76.95;101760.69;5030927;28;20037;-50
2022/05/18 02:33:00;;;;;;;11.18;5.65;;;;;;;18.74;76.94;101762.88;5028817;28;20037;-47
2022/05/18 02:35:28;;;;;;;10.05;5.40;;;;;;;18.71;77.28;101763.50;5022035;28;20068;-48
2022/05/18 02:37:56;;;;;;;9.60;5.03;;;;;;;18.78;77.21;101760.34;5030537;28;20053;-48
2022/05/18 02:40:24;;;;;;;11.88;5.50;;;;;;;18.83;76.71;101756.69;5025500;28;20038;-48
2022/05/18 02:42:51;;;;;;;9.82;4.85;;;;;;;18.91;76.26;101753.25;5013467;28;20052;-47
2022/05/18 02:45:19;;;;;;;11.13;5.30;;;;;;;18.97;75.82;101746.53;5013673;28;20132;-47
2022/05/18 02:47:47;;;;;;;10.38;5.60;;;;;;;19.01;75.46;101753.09;5012436;28;20052;-48
2022/05/18 02:50:15;;;;;;;10.30;5.20;;;;;;;19.04;75.33;101752.47;5013299;28;20136;-47
2022/05/18 02:52:42;;;;;;;10.32;5.00;;;;;;;19.08;75.15;101750.75;5012516;28;20048;-46
2022/05/18 02:57:56;;;;;;;10.32;4.88;;;;;;;19.14;74.81;101757.00;5032060;28;20041;-50
2022/05/18 03:00:24;;;;;;;12.50;5.20;;;;;;;19.14;74.39;101757.81;5032162;28;20053;-48
2022/05/18 03:02:51;;;;;;;10.43;4.82;;;;;;;19.14;74.42;101762.53;5028340;28;20042;-48
2022/05/18 03:05:19;;;;;;;11.75;5.22;;;;;;;19.13;74.34;101758.94;5027893;28;20048;-46
2022/05/18 03:07:47;;;;;;;12.48;5.25;;;;;;;19.14;74.45;101762.53;5014604;28;20503;-46
2022/05/18 03:10:15;;;;;;;10.02;5.45;;;;;;;19.14;74.24;101763.34;5032091;28;20045;-46
2022/05/18 03:12:44;;;;;;;12.48;4.97;;;;;;;19.14;74.22;101768.06;5019052;28;20049;-49
2022/05/18 03:15:12;;;;;;;10.55;4.90;;;;;;;19.13;74.40;101767.25;5026144;28;20486;-51
2022/05/18 03:17:41;;;;;;;10.07;5.07;;;;;;;19.11;74.31;101761.19;4995145;28;20057;-51
2022/05/18 03:23:33;;;;;;;8.90;4.85;;;;;;;19.11;74.48;101769.47;4994834;28;20045;-48
2022/05/18 03:25:43;;;;;;;11.98;5.28;;;;;;;19.09;74.45;101765.38;5011947;28;20054;-48
2022/05/18 03:28:11;;;;;;;8.80;5.18;;;;;;;19.06;74.63;101775.09;4994816;28;20066;-48
2022/05/18 03:30:40;;;;;;;9.93;5.85;;;;;;;19.06;74.44;101780.63;5012346;28;20041;-50
2022/05/18 03:33:07;;;;;;;12.82;5.07;;;;;;;19.06;74.56;101777.84;5025793;28;20038;-48
2022/05/18 03:35:35;;;;;;;14.35;5.60;;;;;;;19.06;74.78;101782.56;4997637;28;20046;-48
2022/05/18 03:38:05;;;;;;;11.30;5.22;;;;;;;19.06;74.51;101788.09;5015367;28;20072;-47
2022/05/18 03:40:37;;;;;;;13.27;5.68;;;;;;;19.05;74.55;101790.03;5029480;28;20041;-46
2022/05/18 03:43:05;;;;;;;13.80;5.47;;;;;;;19.04;74.57;101793.91;5033798;28;20428;-48
2022/05/18 03:45:37;;;;;;;14.18;5.55;;;;;;;19.04;74.47;101793.91;5019439;28;20173;-48
2022/05/18 03:48:06;;;;;;;16.10;5.53;;;;;;;19.04;74.53;101795.84;5015392;28;20049;-46
2022/05/18 03:50:37;;;;;;;12.77;5.75;;;;;;;19.02;74.42;101803.63;5016425;28;20118;-51
2022/05/18 03:53:04;;;;;;;10.27;5.45;;;;;;;18.95;74.81;101804.00;4998759;28;20488;-46
2022/05/18 03:55:33;;;;;;;9.60;5.57;;;;;;;18.95;75.14;101812.28;5011200;28;20048;-47
2022/05/18 03:58:01;;;;;;;12.50;5.40;;;;;;;18.96;74.96;101811.19;5015354;28;20042;-49
2022/05/18 04:00:30;;;;;;;11.57;5.60;;;;;;;18.96;75.07;101811.19;5021504;28;20498;-49
2022/05/18 04:02:58;;;;;;;9.85;5.50;;;;;;;18.98;75.06;101806.19;5033868;28;20041;-48
2022/05/18 04:05:26;;;;;;;10.98;5.18;;;;;;;18.97;75.03;101812.81;5017839;28;20478;-48
2022/05/18 04:07:54;;;;;;;10.80;5.57;;;;;;;18.99;75.08;101804.22;4996762;28;20038;-48
2022/05/18 04:10:21;;;;;;;14.70;6.10;;;;;;;18.98;75.15;101806.19;5014987;28;20489;-46
2022/05/18 04:12:49;;;;;;;12.55;5.60;;;;;;;18.95;75.21;101804.00;4980424;28;20092;-46
2022/05/18 04:15:17;;;;;;;11.35;5.68;;;;;;;18.92;75.03;101810.94;5026123;28;20056;-47
2022/05/18 04:17:46;;;;;;;11.88;6.25;;;;;;;18.92;75.17;101813.69;5022469;28;20072;-48
2022/05/18 04:20:16;;;;;;;12.48;5.95;;;;;;;18.92;75.45;101818.41;5016597;28;20502;-46
2022/05/18 04:22:44;;;;;;;10.40;5.70;;;;;;;18.92;75.37;101822.00;5020636;28;20061;-47
2022/05/18 04:25:15;;;;;;;12.20;6.03;;;;;;;18.92;75.20;101821.19;5017019;28;20041;-49
2022/05/18 04:27:47;;;;;;;14.63;6.60;;;;;;;18.90;75.46;101826.16;5034205;28;20140;-49
2022/05/18 04:30:19;;;;;;;14.13;6.35;;;;;;;18.88;75.33;101820.13;5034655;28;20038;-47
2022/05/18 04:32:48;;;;;;;13.63;6.80;;;;;;;18.88;75.71;101811.84;5031606;28;20087;-45
2022/05/18 04:35:18;;;;;;;14.13;6.50;;;;;;;18.87;75.69;101818.50;5033630;28;20525;-47
2022/05/18 04:37:47;;;;;;;11.02;6.45;;;;;;;18.85;75.73;101815.22;5014922;28;20045;-46
2022/05/18 04:40:15;;;;;;;18.30;7.57;;;;;;;18.84;75.85;101808.88;4997061;28;20042;-49
2022/05/18 04:42:43;;;;;;;16.00;7.15;;;;;;;18.85;75.78;101820.72;5011006;28;20056;-48
2022/05/18 04:45:15;;;;;;;15.70;7.07;;;;;;;18.89;75.60;101827.31;5014508;28;20084;-49
2022/05/18 04:47:42;;;;;;;15.00;7.20;;;;;;;18.91;75.37;101819.53;5027411;28;20503;-48
2022/05/18 04:50:11;;;;;;;14.25;6.90;;;;;;;18.94;75.33;101824.47;5034151;28;20568;-47
2022/05/18 04:52:38;;;;;;;13.43;7.47;;;;;;;18.97;75.21;101829.38;5022038;28;20049;-47
2022/05/18 04:55:07;;;;;;;20.20;7.22;;;;;;;19.00;74.92;101823.28;5014100;28;20038;-49
2022/05/18 04:57:35;;;;;;;15.35;7.57;;;;;;;19.02;74.62;101822.94;5015056;28;20052;-47
2022/05/18 05:00:04;;;;;;;18.45;7.93;;;;;;;19.01;74.71;101816.63;5014251;28;20045;-47
2022/05/18 05:02:34;;;;;;;20.27;7.93;;;;;;;19.04;74.63;101829.81;5010316;28;20034;-51
2022/05/18 05:05:07;;;;;;;16.38;7.57;;;;;;;19.06;74.74;101835.06;5013893;28;20386;-47
2022/05/18 05:07:34;;;;;;;12.43;7.22;;;;;;;19.08;74.61;101833.63;5017133;28;20503;-49
2022/05/18 05:10:03;;;;;;;13.73;7.32;;;;;;;19.11;74.37;101841.31;5033271;28;20107;-51
2022/05/18 05:12:31;;;;;;;12.75;5.90;;;;;;;19.12;74.19;101848.50;5032617;28;20050;-49
2022/05/18 05:14:59;;;;;;;12.40;7.28;;;;;;;19.16;74.37;101851.47;5013762;28;20042;-47
2022/05/18 05:17:26;;;;;;;13.20;7.40;;;;;;;19.19;74.36;101855.56;5013440;28;20063;-51
2022/05/18 05:19:54;;;;;;;11.10;6.15;;;;;;;19.21;74.16;101856.91;5015246;28;20045;-47
2022/05/18 05:22:22;;;;;;;11.63;5.97;;;;;;;19.26;73.91;101867.03;5013808;28;20041;-46
2022/05/18 05:24:49;;;;;;;15.20;6.72;;;;;;;19.28;74.01;101868.38;5013725;28;20377;-47
2022/05/18 05:27:17;;;;;;;11.65;7.35;;;;;;;19.33;73.74;101864.72;4995616;28;20518;-47
2022/05/18 05:30:05;;;;;;;15.39;7.29;;;;;;;19.33;73.91;101864.72;4996179;28;10001407;-49
2022/05/18 05:32:33;;;;;;;13.55;7.13;;;;;;;19.32;73.52;101861.13;5029927;28;20250;-46
2022/05/18 05:35:01;;;;;;;12.07;6.45;;;;;;;19.36;73.20;101864.09;5028237;28;20091;-47
2022/05/18 05:37:29;;;;;;;14.15;7.22;;;;;;;19.40;73.21;101856.03;5026826;28;20068;-46
2022/05/18 05:39:57;;;;;;;11.70;7.22;;;;;;;19.39;73.03;101858.00;5029884;28;20484;-48
2022/05/18 05:42:25;;;;;;;15.02;7.78;;;;;;;19.42;73.17;101865.69;5019540;28;20511;-47
2022/05/18 05:44:53;;;;;;;12.32;7.10;;;;;;;19.48;72.99;101858.09;5009647;28;20512;-47
2022/05/18 05:47:20;;;;;;;13.32;7.43;;;;;;;19.51;73.20;101854.75;5011862;28;20057;-49
2022/05/18 05:49:48;;;;;;;11.73;5.50;;;;;;;19.61;71.99;101862.03;5026280;28;20475;-43
2022/05/18 05:52:16;;;;;;;9.00;5.35;;;;;;;19.66;72.18;101867.47;5029380;28;20092;-45
2022/05/18 05:54:44;;;;;;;12.90;7.25;;;;;;;19.69;71.83;101866.91;4998378;28;20065;-44
2022/05/18 05:57:11;;;;;;;9.65;5.88;;;;;;;19.76;70.82;101867.31;5010901;28;20575;-45
2022/05/18 05:59:39;;;;;;;12.30;5.63;;;;;;;19.81;70.18;101871.94;5009950;28;20049;-42
2022/05/18 06:02:09;;;;;;;8.73;5.07;;;;;;;19.85;69.99;101871.03;5009439;28;20038;-46
2022/05/18 06:04:37;;;;;;;8.60;4.50;;;;;;;19.88;69.50;101875.94;5009576;28;20041;-46
2022/05/18 06:07:05;;;;;;;10.38;4.95;;;;;;;19.90;69.69;101873.69;5029311;28;20058;-50
2022/05/18 06:09:33;;;;;;;10.57;5.32;;;;;;;19.90;70.03;101881.19;5012066;28;20030;-47
2022/05/18 06:12:01;;;;;;;10.35;5.18;;;;;;;19.92;70.14;101884.47;5008871;28;20129;-45
2022/05/18 06:14:29;;;;;;;11.40;5.57;;;;;;;19.99;69.28;101884.88;4992143;28;20048;-43
2022/05/18 06:16:56;;;;;;;11.07;5.60;;;;;;;20.04;68.83;101886.72;5008587;28;20515;-44
2022/05/18 06:19:24;;;;;;;11.50;5.60;;;;;;;20.05;68.81;101885.59;5014253;28;20127;-43
2022/05/18 06:21:51;;;;;;;10.07;4.15;;;;;;;20.06;68.17;101888.06;5030059;28;20048;-43
2022/05/18 06:24:19;;;;;;;11.90;4.70;;;;;;;20.11;68.01;101895.44;5030666;28;20068;-44
2022/05/18 06:26:47;;;;;;;11.85;4.93;;;;;;;20.20;67.75;101901.88;5029692;28;20051;-45
2022/05/18 06:29:15;;;;;;;8.95;3.78;;;;;;;20.23;67.27;101898.53;5014941;28;20045;-43
2022/05/18 06:31:43;;;;;;;10.20;4.22;;;;;;;20.29;67.23;101904.75;4994959;28;20448;-45
2022/05/18 06:34:11;;;;;;;12.00;4.93;;;;;;;20.28;67.18;101901.19;5028723;28;20046;-44
2022/05/18 06:36:38;;;;;;;12.40;4.63;;;;;;;20.27;67.12;101905.06;5012158;28;20121;-45
2022/05/18 06:39:06;;;;;;;19.63;5.70;;;;;;;20.26;67.24;101903.44;5012225;28;20054;-45
2022/05/18 06:41:35;;;;;;;21.58;8.07;;;;;;;20.31;67.01;101911.63;5013377;28;20081;-46
2022/05/18 06:44:04;;;;;;;16.88;7.10;;;;;;;20.29;67.18;101910.31;4998217;28;20045;-48
2022/05/18 06:46:35;;;;;;;15.50;5.75;;;;;;;20.27;67.37;101910.59;4998482;28;20053;-46
2022/05/18 06:49:04;;;;;;;13.07;5.32;;;;;;;20.27;67.55;101916.13;5015686;28;20049;-47
2022/05/18 06:51:34;;;;;;;13.73;5.43;;;;;;;20.27;67.56;101920.84;5012876;28;20404;-48
2022/05/18 06:54:02;;;;;;;13.45;5.18;;;;;;;20.26;67.59;101920.03;5012516;28;20120;-46
2022/05/18 06:56:32;;;;;;;12.93;5.65;;;;;;;20.26;67.89;101922.00;4994972;28;20053;-46
2022/05/18 06:59:00;;;;;;;16.58;5.85;;;;;;;20.27;67.65;101929.97;5031237;28;20042;-46
2022/05/18 07:01:28;;;;;;;12.43;6.60;;;;;;;20.26;67.92;101930.31;4996804;28;20103;-48
2022/05/18 07:03:57;;;;;;;14.25;5.57;;;;;;;20.26;67.77;101936.66;5014077;28;20096;-48
2022/05/18 07:06:30;;;;;;;13.77;5.93;;;;;;;20.26;67.83;101933.88;5031841;28;20041;-48
2022/05/18 07:08:58;;;;;;;12.68;5.82;;;;;;;20.29;67.57;101940.75;5013557;28;20046;-50
2022/05/18 07:11:26;;;;;;;16.33;6.18;;;;;;;20.30;67.70;101936.84;5027902;28;20057;-46
2022/05/18 07:13:55;;;;;;;15.85;6.55;;;;;;;20.29;67.75;101940.75;5035579;28;20069;-51
2022/05/18 07:16:24;;;;;;;11.52;6.40;;;;;;;20.29;67.71;101944.31;5029025;28;20042;-46
2022/05/18 07:18:52;;;;;;;19.63;7.10;;;;;;;20.31;67.76;101944.03;5035824;28;20092;-47
2022/05/18 07:21:20;;;;;;;15.57;7.07;;;;;;;20.32;67.13;101940.94;5020156;28;20049;-49
2022/05/18 07:23:48;;;;;;;13.77;7.25;;;;;;;20.32;66.01;101934.59;5015800;28;20042;-47
2022/05/18 07:26:16;;;;;;;16.05;6.90;;;;;;;20.31;65.34;101947.63;5015617;28;20042;-47
2022/05/18 07:28:44;;;;;;;15.02;6.70;;;;;;;20.31;65.60;101950.38;5018778;28;20037;-47
2022/05/18 07:31:13;;;;;;;15.35;7.25;;;;;;;20.32;65.86;101957.53;5015799;28;20046;-47
2022/05/18 07:34:00;;;;;;;14.32;7.13;;;;;;;20.34;66.33;101963.59;4998586;28;20037;-46
2022/05/18 07:36:29;;;;;;;13.93;6.80;;;;;;;20.36;66.58;101960.53;5024872;28;20049;-47
2022/05/18 07:38:56;;;;;;;13.88;7.72;;;;;;;20.39;66.23;101962.69;5035365;28;20057;-46
2022/05/18 07:41:24;;;;;;;16.27;6.43;;;;;;;20.43;65.92;101964.53;5034593;28;20045;-49
2022/05/18 07:43:52;;;;;;;16.40;7.72;;;;;;;20.47;65.60;101969.44;5015471;28;20053;-48
2022/05/18 07:46:19;;;;;;;16.65;8.50;;;;;;;20.52;65.98;101966.59;5017300;28;20050;-48
2022/05/18 07:48:47;;;;;;;19.52;9.20;;;;;;;20.56;65.78;101967.63;5015399;28;20050;-49
2022/05/18 07:51:15;;;;;;;15.98;9.60;;;;;;;20.58;65.25;101966.19;4997791;28;20055;-48
2022/05/18 07:53:43;;;;;;;20.85;9.70;;;;;;;20.60;65.54;101963.13;5016343;28;20053;-49
2022/05/18 07:56:12;;;;;;;16.70;9.50;;;;;;;20.62;66.29;101971.97;5027082;28;20081;-50
2022/05/18 07:58:40;;;;;;;16.10;8.60;;;;;;;20.67;66.45;101969.09;5034975;28;20044;-50
2022/05/18 08:01:08;;;;;;;18.85;9.80;;;;;;;20.72;67.18;101976.47;5001198;28;20057;-50
2022/05/18 08:03:37;;;;;;;19.15;9.15;;;;;;;20.75;67.15;101975.84;5015251;28;20077;-50
2022/05/18 08:06:05;;;;;;;15.27;9.15;;;;;;;20.80;67.45;101979.31;5000599;28;20097;-49
2022/05/18 08:08:32;;;;;;;15.35;6.63;;;;;;;20.88;66.61;101971.41;4999583;28;20073;-50
2022/05/18 08:16:34;;;;;;;16.45;8.20;;;;;;;20.93;68.22;101968.56;5024923;28;19928;-49
2022/05/18 08:19:03;;;;;;;12.75;7.28;;;;;;;20.96;68.38;101970.69;5017145;28;20551;-48
2022/05/18 08:21:30;;;;;;;13.93;7.47;;;;;;;20.99;68.76;101970.88;5033371;28;20037;-50
2022/05/18 08:23:58;;;;;;;14.32;8.02;;;;;;;21.05;68.93;101969.66;5034510;28;20444;-51
2022/05/18 08:26:26;;;;;;;11.93;7.07;;;;;;;21.11;68.48;101967.56;5029062;28;20046;-51
2022/05/18 08:28:53;;;;;;;13.73;6.30;;;;;;;21.14;68.30;101964.19;5014539;28;20400;-51
2022/05/18 08:31:23;;;;;;;13.05;6.30;;;;;;;21.15;67.80;101967.78;5014519;28;20412;-49
2022/05/18 08:33:52;;;;;;;12.63;6.90;;;;;;;21.15;67.98;101968.59;5010882;28;20684;-47
2022/05/18 08:36:20;;;;;;;15.18;8.15;;;;;;;21.16;68.15;101970.22;5033995;28;20072;-49
2022/05/18 08:38:48;;;;;;;14.27;8.00;;;;;;;21.14;68.83;101978.06;5035877;28;20072;-51
2022/05/18 08:41:16;;;;;;;14.57;6.72;;;;;;;21.15;68.43;101968.59;5005317;28;20129;-48
2022/05/18 08:43:50;;;;;;;11.18;7.15;;;;;;;21.19;69.22;101975.16;5019291;28;20042;-51
2022/05/18 08:46:31;;;;;;;17.25;7.85;;;;;;;21.26;69.28;101972.78;5007814;28;20056;-50
2022/05/18 08:49:30;;;;;;;13.95;8.15;;;;;;;21.31;68.61;101973.78;5019995;28;20400;-48
2022/05/18 08:52:04;;;;;;;15.35;8.00;;;;;;;21.35;68.90;101978.38;5027481;28;20050;-51
2022/05/18 08:54:31;;;;;;;15.65;7.97;;;;;;;21.37;69.42;101980.84;5034094;28;20055;-50
2022/05/18 08:57:00;;;;;;;15.48;7.72;;;;;;;21.40;69.30;101985.78;5032398;28;20055;-49
2022/05/18 08:59:33;;;;;;;12.05;6.07;;;;;;;21.45;68.38;101989.28;5017753;28;20518;-50
2022/05/18 09:02:08;;;;;;;11.55;6.07;;;;;;;21.49;68.32;101987.50;5015706;28;20042;-49
2022/05/18 09:04:58;;;;;;;11.32;6.75;;;;;;;21.57;67.95;101980.38;5017150;28;20046;-53
2022/05/18 09:08:11;;;;;;;12.85;7.90;;;;;;;21.63;68.20;101984.69;5023571;28;20034;-51
2022/05/18 09:10:53;;;;;;;11.65;5.00;;;;;;;21.63;66.24;101981.91;5005670;28;20420;-48
2022/05/18 09:13:21;;;;;;;16.55;6.20;;;;;;;21.63;66.27;101984.69;5033873;28;20047;-50
2022/05/18 09:16:03;;;;;;;12.32;6.85;;;;;;;21.65;67.50;101987.97;5023527;28;20050;-47
2022/05/18 09:18:56;;;;;;;16.90;7.28;;;;;;;21.69;67.90;101989.00;5032128;28;20515;-47
2022/05/18 09:21:26;;;;;;;11.88;5.43;;;;;;;21.73;66.28;101985.56;5013836;28;20050;-46
2022/05/18 09:24:12;;;;;;;13.18;7.82;;;;;;;21.77;67.15;101983.78;5014023;28;20148;-46
2022/05/18 09:27:17;;;;;;;14.25;7.10;;;;;;;21.80;67.45;101985.94;5016240;28;20443;-47
2022/05/18 09:29:52;;;;;;;12.73;7.18;;;;;;;21.83;67.37;101993.63;5017793;28;20137;-45
2022/05/18 09:32:42;;;;;;;11.90;5.80;;;;;;;21.85;66.53;101980.28;5010383;28;20099;-47
2022/05/18 09:35:30;;;;;;;11.45;6.00;;;;;;;21.89;66.58;101984.06;5015320;28;20422;-48
2022/05/18 09:38:11;;;;;;;11.20;5.97;;;;;;;21.90;66.12;101982.91;5023364;28;20057;-50
2022/05/18 09:40:45;;;;;;;18.55;9.32;;;;;;;21.94;67.21;101986.69;4999314;28;20555;-48
2022/05/18 09:43:21;;;;;;;13.48;8.27;;;;;;;21.98;67.12;101984.91;5028686;28;20110;-49
2022/05/18 09:45:49;;;;;;;;;;;;;;;21.99;65.57;101992.13;5032037;28;20038;-49
2022/05/18 09:48:23;;;;;;;16.30;5.72;;;;;;;22.05;65.84;101996.38;4997457;28;19921;-47
2022/05/18 09:50:51;;;;;;;11.85;6.65;;;;;;;22.10;65.84;101982.41;5009372;28;20041;-49
2022/05/18 09:53:20;;;;;;;12.20;5.95;;;;;;;22.10;65.86;101992.66;4995684;28;20073;-48
2022/05/18 09:55:49;;;;;;;17.83;8.13;;;;;;;22.10;66.79;101998.19;4999386;28;20033;-48
2022/05/18 09:58:33;;;;;;;14.45;7.10;;;;;;;22.12;66.21;101991.19;5013964;28;20463;-48
2022/05/18 10:09:45;;;;;;;12.48;7.63;;;;;;;22.21;67.02;101988.50;5017273;28;20046;-50
2022/05/18 10:12:13;;;;;;;16.20;8.63;;;;;;;22.33;67.70;101990.69;5023558;28;20045;-48
2022/05/18 10:14:41;;;;;;;13.45;8.30;;;;;;;22.38;66.48;101993.31;5012681;28;20041;-46
2022/05/18 10:17:12;;;;;;;15.77;7.90;;;;;;;22.38;66.28;101987.78;5019332;28;20053;-47
2022/05/18 10:20:02;;;;;;;14.63;7.47;;;;;;;22.39;66.47;101994.94;5030336;28;20125;-46
2022/05/18 10:22:31;;;;;;;12.10;6.15;;;;;;;22.41;65.13;101989.91;5014602;28;20051;-48
2022/05/18 10:25:09;;;;;;;11.90;5.82;;;;;;;22.41;65.08;101989.91;5015094;28;20128;-48
2022/05/18 10:27:44;;;;;;;13.07;6.18;;;;;;;22.43;65.06;101981.25;5017790;28;20050;-48
2022/05/18 10:30:18;;;;;;;10.00;5.30;;;;;;;22.45;65.23;101976.22;5023416;28;20049;-49
2022/05/18 10:33:04;;;;;;;9.38;5.35;;;;;;;22.51;65.30;101975.75;5032529;28;20041;-50
2022/05/18 10:35:47;;;;;;;;;;;;;;;22.56;65.03;101983.09;5032824;28;20496;-48
2022/05/18 10:38:25;;;;;;;10.50;5.63;;;;;;;22.58;64.15;101971.66;5031081;28;19983;-47
2022/05/18 10:41:13;;;;;;;14.15;6.50;;;;;;;22.61;64.98;101982.13;5030577;28;20037;-48
2022/05/18 10:44:01;;;;;;;10.82;5.82;;;;;;;22.66;64.83;101980.03;5014749;28;20045;-49
2022/05/18 10:46:51;;;;;;;10.32;5.10;;;;;;;22.69;64.42;101981.34;5004815;28;20069;-48
2022/05/18 10:49:33;;;;;;;13.02;5.68;;;;;;;22.68;64.19;101966.66;5015237;28;20042;-48
2022/05/18 10:52:27;;;;;;;10.85;6.57;;;;;;;22.72;64.75;101969.59;5030876;28;20045;-48
2022/05/18 10:55:19;;;;;;;11.27;5.63;;;;;;;22.77;64.27;101978.59;5036088;28;20052;-47
2022/05/18 10:58:12;;;;;;;13.16;6.09;;;;;;;22.81;63.37;101967.66;4940393;28;10000988;-48
2022/05/18 11:01:14;;;;;;;11.82;6.10;;;;;;;22.82;63.61;101966.50;4980946;28;20350;-48
2022/05/18 11:04:01;;;;;;;12.77;5.65;;;;;;;22.83;62.91;101959.00;4995700;28;20488;-46
2022/05/18 11:06:34;;;;;;;9.93;5.25;;;;;;;22.86;62.83;101958.34;4998269;28;20049;-49
2022/05/18 11:09:25;;;;;;;10.43;5.00;;;;;;;22.90;62.47;101965.72;5005190;28;20076;-49
2022/05/18 11:11:58;;;;;;;7.25;3.85;;;;;;;22.92;62.41;101957.88;4984313;28;20061;-49
2022/05/18 11:14:55;;;;;;;13.20;4.82;;;;;;;23.05;61.58;101966.44;5013209;28;20046;-50
2022/05/18 11:18:04;;;;;;;13.85;5.47;;;;;;;23.09;62.24;101968.22;4996192;28;20046;-49
2022/05/18 11:20:45;;;;;;;12.40;5.55;;;;;;;23.11;61.02;101965.91;5032607;28;20103;-49
2022/05/18 11:23:16;;;;;;;13.57;5.13;;;;;;;23.14;60.97;101964.47;5014572;28;20057;-49
2022/05/18 11:25:44;;;;;;;9.85;4.53;;;;;;;23.18;60.47;101969.03;5014545;28;20053;-51
2022/05/18 11:28:34;;;;;;;11.05;4.55;;;;;;;23.17;60.26;101958.25;5012780;28;20049;-46
2022/05/18 11:31:32;;;;;;;12.13;4.60;;;;;;;23.15;61.04;101960.53;5030671;28;20144;-49
2022/05/18 11:34:28;;;;;;;10.35;4.30;;;;;;;23.16;60.01;101959.38;5032288;28;20068;-51
2022/05/18 11:37:11;;;;;;;12.48;4.82;;;;;;;23.21;59.55;101955.63;5009527;28;20045;-48
2022/05/18 11:39:43;;;;;;;6.95;3.88;;;;;;;23.28;60.06;101958.75;5016882;28;20084;-48
2022/05/18 11:42:41;;;;;;;10.15;3.70;;;;;;;23.29;59.42;101961.19;4996380;28;20046;-48
2022/05/18 11:45:39;;;;;;;7.97;4.28;;;;;;;23.36;58.90;101955.97;4994600;28;20070;-47
2022/05/18 11:48:06;;;;;;;11.95;4.78;;;;;;;23.38;58.46;101958.44;5011914;28;20042;-53
2022/05/18 11:50:52;;;;;;;9.25;4.28;;;;;;;23.36;58.36;101953.19;5031391;28;20163;-49
2022/05/18 11:53:46;;;;;;;7.55;3.40;;;;;;;23.35;59.10;101956.28;5013082;28;20080;-46
2022/05/18 11:56:22;;;;;;;8.30;3.78;;;;;;;23.40;58.36;101947.78;4979801;28;20050;-48
2022/05/18 11:59:30;;;;;;;10.25;3.80;;;;;;;23.41;58.28;101948.63;4988372;28;20095;-47
2022/05/18 12:02:12;;;;;;;10.55;3.67;;;;;;;23.43;58.26;101960.19;4996787;28;20411;-49
2022/05/18 12:05:08;;;;;;;11.60;3.95;;;;;;;23.48;58.19;101952.53;5031690;28;20045;-50